Pinedale, New Mexico
Current Conditions -  °F | °C
As of 11:53 AM on Thursday 30 Oct 2014 (Local Time) from KGUP Reporting Station
Clear Clear  
Wind Chill: 66°   Ceiling: Unl
Heat Index: 66°   Visibility: 10mi
Dew Point: 18°   Wind: 9mph
Humidity: 16%   Direction: 60°ENE
Pressure: 30.37"   Gusts: NA
Location:  35.4315°N, 108.724°W
Report Text: KGUP 301753Z AUTO 06008KT 10SM CLR 19/M08 A3037 RMK AO2 SLP209 T01891078 10189 21039 58008
Loading
Personal Weather Stations






























Interactive Weather Map
Tropical Storm Tracking
New forecast layout! Learn more

10-Day Weather Forecast

Advertisements
Track Severe Weather on mobile